createdAt,value
2022-08-17T00:00:51.877Z,25.50
2022-08-17T00:03:40.432Z,25.50
2022-08-17T00:06:11.999Z,25.50
2022-08-17T00:08:54.136Z,25.50
2022-08-17T00:11:28.829Z,25.60
2022-08-17T00:13:59.671Z,25.50
2022-08-17T00:16:55.803Z,25.50
2022-08-17T00:19:24.017Z,25.50
2022-08-17T00:22:29.498Z,25.50
2022-08-17T00:24:40.509Z,25.50
2022-08-17T00:27:08.117Z,25.50
2022-08-17T00:29:34.839Z,25.30
2022-08-17T00:33:14.905Z,25.30
2022-08-17T00:34:52.660Z,25.30
2022-08-17T00:37:19.492Z,25.30
2022-08-17T00:39:46.343Z,25.40
2022-08-17T00:42:18.217Z,25.40
2022-08-17T00:44:45.712Z,25.40
2022-08-17T00:47:12.564Z,25.40
2022-08-17T00:49:39.502Z,25.40
2022-08-17T00:52:16.554Z,25.30
2022-08-17T00:54:47.001Z,25.20
2022-08-17T00:57:34.843Z,25.10
2022-08-17T01:00:08.752Z,25.00
2022-08-17T01:02:42.093Z,25.00
2022-08-17T01:05:16.184Z,25.00
2022-08-17T01:07:47.575Z,25.00
2022-08-17T01:10:59.084Z,24.90
2022-08-17T01:13:04.077Z,24.80
2022-08-17T01:15:35.066Z,24.80
2022-08-17T01:18:02.545Z,24.80
2022-08-17T01:20:29.535Z,24.80
2022-08-17T01:22:59.112Z,24.80
2022-08-17T01:25:25.879Z,24.80
2022-08-17T01:27:52.678Z,24.80
2022-08-17T01:30:56.963Z,24.70
2022-08-17T01:33:06.319Z,24.70
2022-08-17T01:35:33.115Z,24.70
2022-08-17T01:37:59.881Z,24.60
2022-08-17T01:40:39.030Z,24.60
2022-08-17T01:43:19.991Z,24.60
2022-08-17T01:46:03.464Z,24.50
2022-08-17T01:48:37.894Z,24.50
2022-08-17T01:51:07.593Z,24.50
2022-08-17T01:53:42.267Z,24.50
2022-08-17T01:56:16.777Z,24.50
2022-08-17T01:58:46.796Z,24.40
2022-08-17T02:01:22.957Z,24.40
2022-08-17T02:03:56.296Z,24.40
2022-08-17T02:06:27.503Z,24.40
2022-08-17T02:09:02.992Z,24.30
2022-08-17T02:11:33.168Z,24.30
2022-08-17T02:14:03.093Z,24.30
2022-08-17T02:16:36.868Z,24.30
2022-08-17T02:19:09.751Z,24.20
2022-08-17T02:21:38.352Z,24.10
2022-08-17T02:24:11.703Z,24.20
2022-08-17T02:26:38.495Z,24.20
2022-08-17T02:29:05.335Z,24.20
2022-08-17T02:31:32.209Z,24.10
2022-08-17T02:34:03.639Z,24.20
2022-08-17T02:36:33.162Z,24.20
2022-08-17T02:39:08.472Z,24.20
2022-08-17T02:41:36.550Z,24.20
2022-08-17T02:44:05.848Z,24.20
2022-08-17T02:46:35.189Z,24.10
2022-08-17T02:49:02.022Z,24.10
2022-08-17T02:51:28.984Z,24.10
2022-08-17T02:54:39.106Z,24.10
2022-08-17T02:56:42.930Z,24.10
2022-08-17T02:59:09.719Z,24.10
2022-08-17T03:01:36.510Z,24.10
2022-08-17T03:04:03.544Z,24.00
2022-08-17T03:06:31.796Z,23.90
2022-08-17T03:08:58.722Z,23.90
2022-08-17T03:11:25.532Z,23.90
2022-08-17T03:13:52.269Z,23.80
2022-08-17T03:16:21.138Z,23.80
2022-08-17T03:18:48.569Z,23.80
2022-08-17T03:21:17.772Z,23.80
2022-08-17T03:23:44.536Z,23.70
2022-08-17T03:26:12.345Z,23.70
2022-08-17T03:28:42.466Z,23.80
2022-08-17T03:31:14.480Z,23.70
2022-08-17T03:33:43.430Z,23.70
2022-08-17T03:36:10.746Z,23.60
2022-08-17T03:38:39.071Z,23.60
2022-08-17T03:41:07.009Z,23.60
2022-08-17T03:43:34.618Z,23.70
2022-08-17T03:46:41.194Z,23.70
2022-08-17T03:49:27.319Z,23.80
2022-08-17T03:52:13.463Z,23.70
2022-08-17T03:55:00.479Z,23.70
2022-08-17T03:57:27.771Z,23.70
2022-08-17T03:59:55.357Z,23.80
2022-08-17T04:02:26.793Z,23.70
2022-08-17T04:04:55.745Z,23.70
2022-08-17T04:07:25.077Z,23.70
2022-08-17T04:09:51.984Z,23.60
2022-08-17T04:12:20.802Z,23.60
2022-08-17T04:14:52.810Z,23.60
2022-08-17T04:17:29.067Z,23.50
2022-08-17T04:19:56.943Z,23.40
2022-08-17T04:22:31.230Z,23.40
2022-08-17T04:25:09.037Z,23.50
2022-08-17T04:27:38.438Z,23.50
2022-08-17T04:30:07.319Z,23.60
2022-08-17T04:33:05.939Z,23.50
2022-08-17T04:35:43.152Z,23.50
2022-08-17T04:38:13.147Z,23.50
2022-08-17T04:40:58.727Z,23.50
2022-08-17T04:43:27.849Z,23.50
2022-08-17T04:45:57.728Z,23.50
2022-08-17T04:48:37.553Z,23.50
2022-08-17T04:51:09.732Z,23.50
2022-08-17T04:53:40.889Z,23.50
2022-08-17T04:56:11.643Z,23.60
2022-08-17T04:58:47.887Z,23.60
2022-08-17T05:01:23.229Z,23.60
2022-08-17T05:03:54.494Z,23.60
2022-08-17T05:06:22.111Z,23.60
2022-08-17T05:08:49.026Z,23.70
2022-08-17T05:11:15.920Z,23.70
2022-08-17T05:13:42.679Z,23.70
2022-08-17T05:16:09.704Z,23.80
2022-08-17T05:18:38.771Z,23.70
2022-08-17T05:21:08.414Z,23.70
2022-08-17T05:23:42.858Z,23.70
2022-08-17T05:26:26.171Z,23.60
2022-08-17T05:29:00.360Z,23.70
2022-08-17T05:31:28.758Z,23.60
2022-08-17T05:33:55.818Z,23.60
2022-08-17T05:36:41.808Z,23.60
2022-08-17T05:39:10.734Z,23.70
2022-08-17T05:41:43.596Z,23.70
2022-08-17T05:44:10.956Z,23.70
2022-08-17T05:46:41.913Z,23.70
2022-08-17T05:49:09.492Z,23.80
2022-08-17T05:52:06.393Z,23.70
2022-08-17T05:54:47.459Z,23.70
2022-08-17T05:57:53.389Z,23.80
2022-08-17T06:00:30.199Z,23.70
2022-08-17T06:03:25.030Z,23.50
2022-08-17T06:06:17.716Z,23.20
2022-08-17T06:08:51.904Z,22.90
2022-08-17T06:11:27.660Z,22.90
2022-08-17T06:14:03.937Z,22.90
2022-08-17T06:16:36.840Z,23.00
2022-08-17T06:19:14.856Z,22.90
2022-08-17T06:21:45.297Z,23.20
2022-08-17T06:24:18.317Z,23.40
2022-08-17T06:26:45.678Z,23.50
2022-08-17T06:29:30.562Z,23.40
2022-08-17T06:31:57.661Z,23.50
2022-08-17T06:34:24.587Z,23.40
2022-08-17T06:37:03.737Z,23.60
2022-08-17T06:39:41.545Z,23.80
2022-08-17T06:43:02.111Z,23.80
2022-08-17T06:45:34.637Z,23.80
2022-08-17T06:48:15.561Z,23.80
2022-08-17T06:51:08.317Z,23.90
2022-08-17T06:53:40.251Z,23.90
2022-08-17T06:56:10.978Z,24.10
2022-08-17T06:58:41.612Z,24.20
2022-08-17T07:01:25.200Z,24.20
2022-08-17T07:04:17.067Z,24.30
2022-08-17T07:06:59.348Z,24.30
2022-08-17T07:09:37.442Z,24.30
2022-08-17T07:12:16.149Z,24.40
2022-08-17T07:14:51.857Z,24.50
2022-08-17T07:17:21.354Z,24.50
2022-08-17T07:20:12.913Z,24.60
2022-08-17T07:23:11.829Z,24.40
2022-08-17T07:25:41.038Z,24.40
2022-08-17T07:28:07.989Z,24.50
2022-08-17T07:30:49.681Z,24.30
2022-08-17T07:33:21.210Z,24.30
2022-08-17T07:35:49.785Z,24.30
2022-08-17T07:38:24.820Z,24.20
2022-08-17T07:41:02.683Z,24.20
2022-08-17T07:43:42.073Z,24.40
2022-08-17T07:46:30.126Z,24.50
2022-08-17T07:49:24.834Z,24.50
2022-08-17T07:51:51.582Z,24.60
2022-08-17T07:54:32.174Z,24.50
2022-08-17T07:57:00.795Z,24.60
2022-08-17T07:59:37.353Z,24.60
2022-08-17T08:02:17.079Z,24.70
2022-08-17T08:05:00.943Z,24.70
2022-08-17T08:07:40.030Z,24.60
2022-08-17T08:10:06.955Z,24.50
2022-08-17T08:12:36.941Z,24.40
2022-08-17T08:15:10.049Z,24.30
2022-08-17T08:17:47.976Z,24.10
2022-08-17T08:20:34.886Z,24.00
2022-08-17T08:23:11.466Z,24.00
2022-08-17T08:26:01.680Z,23.80
2022-08-17T08:29:05.676Z,23.70
2022-08-17T08:32:01.682Z,23.90
2022-08-17T08:34:59.073Z,24.00
2022-08-17T08:37:35.518Z,24.10
2022-08-17T08:40:11.041Z,24.00
2022-08-17T08:42:58.752Z,24.00
2022-08-17T08:45:53.360Z,24.00
2022-08-17T08:48:56.627Z,24.10
2022-08-17T08:51:55.626Z,24.10
2022-08-17T08:54:40.851Z,24.20
2022-08-17T08:57:34.022Z,24.20
2022-08-17T09:00:17.387Z,24.20
2022-08-17T09:03:20.113Z,24.00
2022-08-17T09:06:06.059Z,24.00
2022-08-17T09:08:55.853Z,24.20
2022-08-17T09:11:28.410Z,24.00
2022-08-17T09:14:05.681Z,23.90
2022-08-17T09:17:12.654Z,23.80
2022-08-17T09:19:59.546Z,23.90
2022-08-17T09:22:32.223Z,23.70
2022-08-17T09:25:14.403Z,23.70
2022-08-17T09:28:01.005Z,23.60
2022-08-17T09:30:36.379Z,23.50
2022-08-17T09:33:07.956Z,23.60
2022-08-17T09:35:53.341Z,23.50
2022-08-17T09:38:41.752Z,23.60
2022-08-17T09:41:49.155Z,23.60
2022-08-17T09:44:28.292Z,23.70
2022-08-17T09:47:14.056Z,23.70
2022-08-17T09:49:53.901Z,23.60
2022-08-17T09:52:25.612Z,23.70
2022-08-17T09:54:57.737Z,23.60
2022-08-17T09:57:41.814Z,23.60
2022-08-17T10:00:27.783Z,23.50
2022-08-17T10:03:34.277Z,23.60
2022-08-17T10:06:13.295Z,23.50
2022-08-17T10:08:44.054Z,23.40
2022-08-17T10:11:50.280Z,23.40
2022-08-17T10:14:43.610Z,23.40
2022-08-17T10:17:33.071Z,23.40
2022-08-17T10:20:30.143Z,23.60
2022-08-17T10:23:19.122Z,23.40
2022-08-17T10:26:15.576Z,23.50
2022-08-17T10:28:55.216Z,23.60
2022-08-17T10:31:34.761Z,23.80
2022-08-17T10:34:41.829Z,23.90
2022-08-17T10:37:32.926Z,23.70
2022-08-17T10:40:27.938Z,23.80
2022-08-17T10:43:32.889Z,24.00
2022-08-17T10:46:31.047Z,24.00
2022-08-17T10:49:26.966Z,24.00
2022-08-17T10:51:56.976Z,24.20
2022-08-17T10:55:08.980Z,24.30
2022-08-17T10:57:36.142Z,24.00
2022-08-17T11:00:08.349Z,24.00
2022-08-17T11:02:49.627Z,24.30
2022-08-17T11:05:43.679Z,24.70
2022-08-17T11:08:23.005Z,25.10
2022-08-17T11:11:25.661Z,25.40
2022-08-17T11:14:11.259Z,25.70
2022-08-17T11:16:41.077Z,25.90
2022-08-17T11:19:33.404Z,25.80
2022-08-17T11:22:12.283Z,25.60
2022-08-17T11:24:43.386Z,25.70
2022-08-17T11:27:28.459Z,25.50
2022-08-17T11:30:07.371Z,25.40
2022-08-17T11:32:47.142Z,25.40
2022-08-17T11:35:20.781Z,25.50
2022-08-17T11:37:55.614Z,25.50
2022-08-17T11:40:25.536Z,25.50
2022-08-17T11:43:42.980Z,25.40
2022-08-17T11:46:17.303Z,25.20
2022-08-17T11:49:11.536Z,24.80
2022-08-17T11:52:32.454Z,25.00
2022-08-17T11:55:12.405Z,25.60
2022-08-17T11:58:05.527Z,25.80
2022-08-17T12:00:49.792Z,26.10
2022-08-17T12:03:53.817Z,26.20
2022-08-17T12:06:30.211Z,26.60
2022-08-17T12:09:07.534Z,27.10
2022-08-17T12:11:58.731Z,27.40
2022-08-17T12:15:08.147Z,27.70
2022-08-17T12:17:41.499Z,27.80
2022-08-17T12:20:15.145Z,27.40
2022-08-17T12:32:54.569Z,27.80
2022-08-17T12:35:36.687Z,27.90
2022-08-17T12:38:32.069Z,28.30
2022-08-17T12:40:58.351Z,28.40
2022-08-17T12:43:31.173Z,27.40
2022-08-17T12:46:14.794Z,27.80
2022-08-17T12:48:58.915Z,28.00
2022-08-17T12:51:29.113Z,28.30
2022-08-17T12:53:56.288Z,28.30
2022-08-17T12:56:23.180Z,28.60
2022-08-17T12:58:54.366Z,28.80
2022-08-17T13:01:23.419Z,28.90
2022-08-17T13:03:53.438Z,29.20
2022-08-17T13:06:51.789Z,29.30
2022-08-17T13:09:35.664Z,29.50
2022-08-17T13:12:08.106Z,29.30
2022-08-17T13:14:35.334Z,29.70
2022-08-17T13:17:09.654Z,29.90
2022-08-17T13:19:49.334Z,29.70
2022-08-17T13:22:18.306Z,30.00
2022-08-17T13:25:16.036Z,30.60
2022-08-17T13:27:44.105Z,30.50
2022-08-17T13:30:14.168Z,30.90
2022-08-17T13:32:47.329Z,31.50
2022-08-17T13:35:40.016Z,31.60
2022-08-17T13:38:09.323Z,31.80
2022-08-17T13:40:41.686Z,31.40
2022-08-17T13:43:10.013Z,31.50
2022-08-17T13:45:50.609Z,31.80
2022-08-17T13:48:28.353Z,31.60
2022-08-17T13:50:56.441Z,31.30
2022-08-17T13:53:47.739Z,30.50
2022-08-17T13:56:38.825Z,29.80
2022-08-17T13:59:53.443Z,28.90
2022-08-17T14:02:20.360Z,28.70
2022-08-17T14:04:47.974Z,28.90
2022-08-17T14:07:16.038Z,28.80
2022-08-17T14:09:55.878Z,28.30
2022-08-17T14:12:25.970Z,28.10
2022-08-17T14:14:55.028Z,28.10
2022-08-17T14:17:23.067Z,28.20
2022-08-17T14:19:51.009Z,28.20
2022-08-17T14:22:34.868Z,28.00
2022-08-17T14:25:02.455Z,28.00
2022-08-17T14:27:33.364Z,27.50
2022-08-17T14:30:09.197Z,27.30
2022-08-17T14:32:41.332Z,27.50
2022-08-17T14:35:10.100Z,27.90
2022-08-17T14:37:36.999Z,27.80
2022-08-17T14:40:10.815Z,28.00
2022-08-17T14:42:40.287Z,28.00
2022-08-17T14:45:32.892Z,28.70
2022-08-17T14:47:59.598Z,30.00
2022-08-17T14:50:27.202Z,29.90
2022-08-17T14:52:58.194Z,29.60
2022-08-17T14:55:26.527Z,29.40
2022-08-17T14:57:55.616Z,29.00
2022-08-17T15:00:26.045Z,29.10
2022-08-17T15:03:00.339Z,28.70
2022-08-17T15:05:39.509Z,28.10
2022-08-17T15:08:07.073Z,28.10
2022-08-17T15:10:36.518Z,27.90
2022-08-17T15:13:03.987Z,27.80
2022-08-17T15:15:30.853Z,28.80
2022-08-17T15:18:00.032Z,29.70
2022-08-17T15:20:29.779Z,31.10
2022-08-17T15:22:58.984Z,32.10
2022-08-17T15:25:29.587Z,32.60
2022-08-17T15:27:56.788Z,32.90
2022-08-17T15:30:24.284Z,32.60
2022-08-17T15:32:55.207Z,32.60
2022-08-17T15:35:27.920Z,32.70
2022-08-17T15:38:11.050Z,32.40
2022-08-17T15:40:43.835Z,32.20
2022-08-17T15:43:35.121Z,32.70
2022-08-17T15:46:07.811Z,33.30
2022-08-17T15:48:41.822Z,33.30
2022-08-17T15:51:08.952Z,33.60
2022-08-17T15:53:36.587Z,33.60
2022-08-17T15:56:06.288Z,32.60
2022-08-17T15:58:36.763Z,32.60
2022-08-17T16:01:14.756Z,31.80
2022-08-17T16:04:04.821Z,31.50
2022-08-17T16:06:34.603Z,31.10
2022-08-17T16:09:01.411Z,30.10
2022-08-17T16:11:28.236Z,29.20
2022-08-17T16:13:56.057Z,29.00
2022-08-17T16:16:23.765Z,29.20
2022-08-17T16:18:54.496Z,29.30
2022-08-17T16:21:27.103Z,29.20
2022-08-17T16:24:03.490Z,29.00
2022-08-17T16:26:31.962Z,28.80
2022-08-17T16:29:01.076Z,29.00
2022-08-17T16:31:28.972Z,28.70
2022-08-17T16:34:16.085Z,28.50
2022-08-17T16:36:54.639Z,28.50
2022-08-17T16:39:28.950Z,28.60
2022-08-17T16:41:56.964Z,28.50
2022-08-17T16:44:26.112Z,28.40
2022-08-17T16:46:53.590Z,28.40
2022-08-17T16:49:35.101Z,28.40
2022-08-17T16:52:07.488Z,28.20
2022-08-17T16:54:35.663Z,28.30
2022-08-17T16:57:05.132Z,28.30
2022-08-17T16:59:40.811Z,28.20
2022-08-17T17:02:13.456Z,28.20
2022-08-17T17:04:49.517Z,28.20
2022-08-17T17:07:36.533Z,28.30
2022-08-17T17:10:17.145Z,28.00
2022-08-17T17:13:03.165Z,27.90
2022-08-17T17:15:47.273Z,28.00
2022-08-17T17:18:15.722Z,27.80
2022-08-17T17:20:55.259Z,27.90
2022-08-17T17:23:43.462Z,27.60
2022-08-17T17:26:40.794Z,27.70
2022-08-17T17:29:10.715Z,27.90
2022-08-17T17:31:47.283Z,27.60
2022-08-17T17:34:16.577Z,27.70
2022-08-17T17:36:52.045Z,27.70
2022-08-17T17:40:00.053Z,27.70
2022-08-17T17:42:31.525Z,27.40
2022-08-17T17:45:13.492Z,27.40
2022-08-17T17:47:40.602Z,27.40
2022-08-17T17:50:08.461Z,27.30
2022-08-17T17:53:04.373Z,27.20
2022-08-17T17:55:54.834Z,27.10
2022-08-17T17:59:06.508Z,27.10
2022-08-17T18:01:59.278Z,27.10
2022-08-17T18:04:41.373Z,27.10
2022-08-17T18:07:19.395Z,27.00
2022-08-17T18:10:29.907Z,26.90
2022-08-17T18:13:39.225Z,26.90
2022-08-17T18:16:10.128Z,26.90
2022-08-17T18:18:39.090Z,26.80
2022-08-17T18:21:16.749Z,26.80
2022-08-17T18:24:00.617Z,26.80
2022-08-17T18:26:33.512Z,26.50
2022-08-17T18:29:02.415Z,26.60
2022-08-17T18:31:29.442Z,26.40
2022-08-17T18:34:45.910Z,26.40
2022-08-17T18:37:10.737Z,26.30
2022-08-17T18:39:38.336Z,26.30
2022-08-17T18:42:23.567Z,26.20
2022-08-17T18:44:54.788Z,26.20
2022-08-17T18:47:25.393Z,26.00
2022-08-17T18:50:19.370Z,26.00
2022-08-17T18:52:48.552Z,26.00
2022-08-17T18:55:22.235Z,26.00
2022-08-17T18:58:18.126Z,25.90
2022-08-17T19:00:46.122Z,26.00
2022-08-17T19:03:15.690Z,25.90
2022-08-17T19:05:49.769Z,25.80
2022-08-17T19:08:19.281Z,25.70
2022-08-17T19:10:49.303Z,25.60
2022-08-17T19:13:23.268Z,25.60
2022-08-17T19:16:11.454Z,25.60
2022-08-17T19:19:04.893Z,25.50
2022-08-17T19:21:45.830Z,25.60
2022-08-17T19:24:29.955Z,25.50
2022-08-17T19:27:43.670Z,25.50
2022-08-17T19:30:14.798Z,25.50
2022-08-17T19:32:44.539Z,25.30
2022-08-17T19:35:17.383Z,25.30
2022-08-17T19:38:03.802Z,25.20
2022-08-17T19:40:56.069Z,25.10
2022-08-17T19:43:28.592Z,25.10
2022-08-17T19:46:27.367Z,25.00
2022-08-17T19:49:33.169Z,25.00
2022-08-17T19:52:43.184Z,25.00
2022-08-17T19:55:47.460Z,24.90
2022-08-17T19:58:42.830Z,25.00
2022-08-17T20:01:19.472Z,25.00
2022-08-17T20:04:03.388Z,24.90
2022-08-17T20:06:34.402Z,24.90
2022-08-17T20:09:20.029Z,24.90
2022-08-17T20:11:48.430Z,24.80
2022-08-17T20:14:19.635Z,24.80
2022-08-17T20:16:46.412Z,24.50
2022-08-17T20:19:24.279Z,24.60
2022-08-17T20:21:58.306Z,24.70
2022-08-17T20:24:39.938Z,24.70
2022-08-17T20:27:10.064Z,24.60
2022-08-17T20:29:55.258Z,24.70
2022-08-17T20:32:26.857Z,24.50
2022-08-17T20:35:21.026Z,24.50
2022-08-17T20:37:58.003Z,24.60
2022-08-17T20:40:38.497Z,24.50
2022-08-17T20:43:43.246Z,24.40
2022-08-17T20:46:28.150Z,24.30
2022-08-17T20:48:59.824Z,24.30
2022-08-17T20:51:32.488Z,24.30
2022-08-17T20:54:07.087Z,24.30
2022-08-17T20:56:46.531Z,24.20
2022-08-17T20:59:30.353Z,24.20
2022-08-17T21:02:12.377Z,24.20
2022-08-17T21:04:54.462Z,24.10
2022-08-17T21:07:41.055Z,24.00
2022-08-17T21:10:16.796Z,24.00
2022-08-17T21:12:48.524Z,24.00
2022-08-17T21:15:39.320Z,23.90
2022-08-17T21:18:16.461Z,24.00
2022-08-17T21:21:15.349Z,24.00
2022-08-17T21:23:57.078Z,23.90
2022-08-17T21:26:50.500Z,23.80
2022-08-17T21:29:31.753Z,23.80
2022-08-17T21:32:00.530Z,23.80
2022-08-17T21:34:43.278Z,23.80
2022-08-17T21:37:18.942Z,23.80
2022-08-17T21:40:08.711Z,23.70
2022-08-17T21:42:38.315Z,23.80
2022-08-17T21:45:24.339Z,23.70
2022-08-17T21:48:17.716Z,23.70
2022-08-17T21:50:55.731Z,23.70
2022-08-17T21:53:38.021Z,23.70
2022-08-17T21:56:06.114Z,23.60
2022-08-17T21:58:39.092Z,23.60
2022-08-17T22:01:20.017Z,23.50
2022-08-17T22:04:14.165Z,23.40
2022-08-17T22:06:57.308Z,23.50
2022-08-17T22:09:25.697Z,23.30
2022-08-17T22:11:58.341Z,23.50
2022-08-17T22:14:53.296Z,23.50
2022-08-17T22:17:25.106Z,23.30
2022-08-17T22:20:01.451Z,23.20
2022-08-17T22:22:33.976Z,23.10
2022-08-17T22:25:05.227Z,23.00
2022-08-17T22:27:57.847Z,23.00
2022-08-17T22:30:27.541Z,23.10
2022-08-17T22:32:59.724Z,23.10
2022-08-17T22:35:34.807Z,23.10
2022-08-17T22:38:19.834Z,23.10
2022-08-17T22:40:56.090Z,23.10
2022-08-17T22:43:28.605Z,23.10
2022-08-17T22:45:58.950Z,23.10
2022-08-17T22:48:28.766Z,23.10
2022-08-17T22:51:14.146Z,23.20
2022-08-17T22:54:12.236Z,23.20
2022-08-17T22:57:32.066Z,23.20
2022-08-17T23:00:00.806Z,23.10
2022-08-17T23:02:34.362Z,23.10
2022-08-17T23:05:10.768Z,23.10
2022-08-17T23:07:37.857Z,23.10
2022-08-17T23:10:07.534Z,23.10
2022-08-17T23:12:39.660Z,23.10
2022-08-17T23:15:14.564Z,22.90
2022-08-17T23:17:42.159Z,23.00
2022-08-17T23:20:12.551Z,22.90
2022-08-17T23:22:51.255Z,22.80
2022-08-17T23:25:28.269Z,22.80
2022-08-17T23:28:01.883Z,22.80
2022-08-17T23:30:30.537Z,22.70
2022-08-17T23:33:04.697Z,22.80
2022-08-17T23:35:40.097Z,22.80
2022-08-17T23:38:12.954Z,22.80
2022-08-17T23:40:43.093Z,22.80
2022-08-17T23:43:24.322Z,22.60
2022-08-17T23:45:57.954Z,22.60
2022-08-17T23:48:34.973Z,22.60
2022-08-17T23:51:10.829Z,22.50
2022-08-17T23:53:41.916Z,22.40
2022-08-17T23:56:11.820Z,22.40
2022-08-17T23:58:41.930Z,22.20
